Time,TemperatureF,DewpointF,PressureIn,WindDirection,WindDirectionDegrees,WindSpeedMPH,WindSpeedGustMPH,Humidity,HourlyPrecipIn,Conditions,Clouds,dailyrainin,SoftwareType,DateUTC
2013-06-30 00:11:00,65.9,65.0,29.73,WNW,290,0.0,0.0,97,0.00,,,0.68,weatherlink.com 1.10,2013-06-30 04:11:00,
2013-06-30 00:26:00,65.9,65.0,29.73,WNW,290,0.0,0.0,97,0.00,,,0.68,weatherlink.com 1.10,2013-06-30 04:26:00,
2013-06-30 00:41:00,66.3,66.0,29.73,SSW,194,0.0,4.0,97,0.00,,,0.68,weatherlink.com 1.10,2013-06-30 04:41:00,
2013-06-30 00:56:00,65.9,65.0,29.73,SSW,194,0.0,1.0,97,0.00,,,0.68,weatherlink.com 1.10,2013-06-30 04:56:00,
2013-06-30 01:11:00,65.6,65.0,29.73,NNE,32,1.0,2.0,96,0.00,,,0.68,weatherlink.com 1.10,2013-06-30 05:11:00,
2013-06-30 01:26:00,65.6,65.0,29.73,NW,311,0.0,3.0,97,0.00,,,0.68,weatherlink.com 1.10,2013-06-30 05:26:00,
2013-06-30 01:41:00,65.3,65.0,29.73,NW,314,1.0,1.0,97,0.00,,,0.68,weatherlink.com 1.10,2013-06-30 05:41:00,
2013-06-30 01:56:00,64.9,64.0,29.73,NNE,20,0.0,1.0,97,0.00,,,0.68,weatherlink.com 1.10,2013-06-30 05:56:00,
2013-06-30 02:11:00,64.9,64.0,29.73,North,1,0.0,1.0,97,0.00,,,0.68,weatherlink.com 1.10,2013-06-30 06:11:00,
2013-06-30 02:26:00,65.0,64.0,29.73,ESE,103,1.0,1.0,97,0.00,,,0.68,weatherlink.com 1.10,2013-06-30 06:26:00,
2013-06-30 02:41:00,64.5,64.0,29.73,WNW,293,0.0,1.0,97,0.00,,,0.68,weatherlink.com 1.10,2013-06-30 06:41:00,
2013-06-30 02:56:00,64.6,64.0,29.73,NNE,20,0.0,1.0,97,0.00,,,0.68,weatherlink.com 1.10,2013-06-30 06:56:00,
2013-06-30 03:11:00,64.2,63.0,29.73,North,352,0.0,1.0,97,0.00,,,0.68,weatherlink.com 1.10,2013-06-30 07:11:00,
2013-06-30 03:26:00,63.9,63.0,29.73,NNW,337,1.0,2.0,97,0.00,,,0.68,weatherlink.com 1.10,2013-06-30 07:26:00,
2013-06-30 03:41:00,64.0,63.0,29.73,NNW,337,0.0,0.0,97,0.00,,,0.68,weatherlink.com 1.10,2013-06-30 07:41:00,
2013-06-30 03:56:00,64.4,64.0,29.72,ENE,74,0.0,1.0,97,0.00,,,0.68,weatherlink.com 1.10,2013-06-30 07:56:00,
2013-06-30 04:11:00,64.5,64.0,29.72,North,11,0.0,1.0,97,0.00,,,0.68,weatherlink.com 1.10,2013-06-30 08:11:00,
2013-06-30 04:26:00,64.3,64.0,29.72,West,276,0.0,1.0,97,0.00,,,0.68,weatherlink.com 1.10,2013-06-30 08:26:00,
2013-06-30 04:41:00,64.4,64.0,29.72,NW,305,1.0,1.0,97,0.00,,,0.68,weatherlink.com 1.10,2013-06-30 08:41:00,
2013-06-30 04:56:00,64.4,64.0,29.73,NW,307,0.0,1.0,97,0.00,,,0.68,weatherlink.com 1.10,2013-06-30 08:56:00,
2013-06-30 05:12:00,64.3,64.0,29.73,SE,139,0.0,0.0,97,0.00,,,0.68,weatherlink.com 1.10,2013-06-30 09:12:00,
2013-06-30 05:27:00,64.3,64.0,29.74,North,350,0.0,1.0,97,0.01,,,0.69,weatherlink.com 1.10,2013-06-30 09:27:00,
2013-06-30 05:42:00,64.1,63.0,29.74,West,268,0.0,1.0,97,0.01,,,0.69,weatherlink.com 1.10,2013-06-30 09:42:00,
2013-06-30 05:57:00,63.8,63.0,29.75,SW,214,0.0,1.0,97,0.01,,,0.69,weatherlink.com 1.10,2013-06-30 09:57:00,
2013-06-30 06:12:00,64.1,64.0,29.75,WSW,240,0.0,1.0,98,0.01,,,0.69,weatherlink.com 1.10,2013-06-30 10:12:00,
2013-06-30 06:27:00,64.1,64.0,29.76,West,270,0.0,1.0,98,0.00,,,0.69,weatherlink.com 1.10,2013-06-30 10:27:00,
2013-06-30 06:42:00,64.8,64.0,29.77,West,268,0.0,0.0,98,0.00,,,0.69,weatherlink.com 1.10,2013-06-30 10:42:00,
2013-06-30 06:57:00,65.2,65.0,29.77,West,269,0.0,0.0,98,0.00,,,0.69,weatherlink.com 1.10,2013-06-30 10:57:00,
2013-06-30 07:12:00,65.5,65.0,29.78,West,269,0.0,0.0,98,0.00,,,0.69,weatherlink.com 1.10,2013-06-30 11:12:00,
2013-06-30 07:27:00,66.8,66.0,29.78,West,268,0.0,1.0,97,0.00,,,0.69,weatherlink.com 1.10,2013-06-30 11:27:00,
2013-06-30 07:42:00,67.1,66.0,29.79,SE,136,0.0,1.0,97,0.00,,,0.69,weatherlink.com 1.10,2013-06-30 11:42:00,
2013-06-30 07:57:00,67.9,67.0,29.79,South,191,0.0,1.0,97,0.00,,,0.69,weatherlink.com 1.10,2013-06-30 11:57:00,
2013-06-30 08:12:00,68.1,67.0,29.79,NNW,347,1.0,2.0,96,0.00,,,0.69,weatherlink.com 1.10,2013-06-30 12:12:00,
2013-06-30 08:27:00,68.9,68.0,29.80,North,356,1.0,1.0,97,0.00,,,0.69,weatherlink.com 1.10,2013-06-30 12:27:00,
2013-06-30 08:42:00,68.8,68.0,29.80,WNW,292,0.0,1.0,96,0.00,,,0.69,weatherlink.com 1.10,2013-06-30 12:42:00,
2013-06-30 08:57:00,69.6,68.0,29.79,NW,312,1.0,3.0,95,0.00,,,0.69,weatherlink.com 1.10,2013-06-30 12:57:00,
2013-06-30 09:12:00,69.9,68.0,29.80,North,10,0.0,1.0,94,0.00,,,0.69,weatherlink.com 1.10,2013-06-30 13:12:00,
2013-06-30 09:27:00,70.5,69.0,29.80,West,277,2.0,3.0,94,0.00,,,0.69,weatherlink.com 1.10,2013-06-30 13:27:00,
2013-06-30 09:42:00,70.9,69.0,29.80,NNW,330,0.0,3.0,92,0.00,,,0.69,weatherlink.com 1.10,2013-06-30 13:42:00,
2013-06-30 09:57:00,71.9,70.0,29.80,WSW,250,0.0,2.0,92,0.00,,,0.69,weatherlink.com 1.10,2013-06-30 13:57:00,
2013-06-30 10:12:00,73.8,70.0,29.80,North,5,0.0,2.0,89,0.00,,,0.69,weatherlink.com 1.10,2013-06-30 14:12:00,
2013-06-30 10:27:00,75.1,71.0,29.80,ESE,105,1.0,3.0,86,0.00,,,0.69,weatherlink.com 1.10,2013-06-30 14:27:00,
2013-06-30 10:42:00,75.8,71.0,29.80,North,9,1.0,2.0,85,0.00,,,0.69,weatherlink.com 1.10,2013-06-30 14:42:00,
2013-06-30 10:57:00,75.6,71.0,29.80,West,276,2.0,4.0,84,0.00,,,0.69,weatherlink.com 1.10,2013-06-30 14:57:00,
2013-06-30 11:12:00,76.2,71.0,29.80,West,270,1.0,2.0,84,0.00,,,0.69,weatherlink.com 1.10,2013-06-30 15:12:00,
2013-06-30 11:27:00,76.6,71.0,29.80,SE,136,1.0,4.0,83,0.00,,,0.69,weatherlink.com 1.10,2013-06-30 15:27:00,
2013-06-30 11:42:00,79.3,72.0,29.79,East,94,0.0,5.0,77,0.00,,,0.69,weatherlink.com 1.10,2013-06-30 15:42:00,
2013-06-30 11:57:00,79.2,73.0,29.79,North,5,0.0,3.0,80,0.00,,,0.69,weatherlink.com 1.10,2013-06-30 15:57:00,
2013-06-30 12:12:00,80.8,73.0,29.79,SSE,160,3.0,5.0,77,0.00,,,0.00,weatherlink.com 1.10,2013-06-30 16:12:00,
2013-06-30 12:27:00,81.5,73.0,29.79,SE,138,2.0,5.0,75,0.00,,,0.00,weatherlink.com 1.10,2013-06-30 16:27:00,
2013-06-30 12:42:00,82.5,73.0,29.79,SSW,197,4.0,8.0,73,0.00,,,0.00,weatherlink.com 1.10,2013-06-30 16:42:00,
2013-06-30 12:57:00,82.5,71.0,29.78,ESE,122,0.0,8.0,69,0.00,,,0.00,weatherlink.com 1.10,2013-06-30 16:57:00,
2013-06-30 13:12:00,83.4,72.0,29.79,SSW,204,6.0,8.0,68,0.00,,,0.00,weatherlink.com 1.10,2013-06-30 17:12:00,
2013-06-30 13:27:00,84.3,70.0,29.79,SSW,197,4.0,9.0,63,0.00,,,0.00,weatherlink.com 1.10,2013-06-30 17:27:00,
2013-06-30 13:42:00,83.7,72.0,29.79,SSW,207,1.0,7.0,67,0.00,,,0.00,weatherlink.com 1.10,2013-06-30 17:42:00,
2013-06-30 13:57:00,84.5,70.0,29.79,SSE,152,3.0,9.0,63,0.00,,,0.00,weatherlink.com 1.10,2013-06-30 17:57:00,
2013-06-30 14:12:00,85.6,71.0,29.78,SE,141,2.0,8.0,62,0.00,,,0.00,weatherlink.com 1.10,2013-06-30 18:12:00,
2013-06-30 14:27:00,86.5,70.0,29.77,ESE,109,2.0,7.0,59,0.00,,,0.00,weatherlink.com 1.10,2013-06-30 18:27:00,
2013-06-30 14:43:00,86.5,69.0,29.77,East,86,5.0,10.0,57,0.00,,,0.00,weatherlink.com 1.10,2013-06-30 18:43:00,
2013-06-30 14:58:00,86.8,70.0,29.77,ESE,121,3.0,10.0,58,0.00,,,0.00,weatherlink.com 1.10,2013-06-30 18:58:00,
2013-06-30 15:13:00,87.2,70.0,29.77,SSW,212,3.0,7.0,57,0.00,,,0.00,weatherlink.com 1.10,2013-06-30 19:13:00,
2013-06-30 15:28:00,85.9,70.0,29.76,East,82,7.0,7.0,60,0.00,,,0.00,weatherlink.com 1.10,2013-06-30 19:28:00,
2013-06-30 15:43:00,85.6,71.0,29.77,SE,140,8.0,10.0,62,0.00,,,0.00,weatherlink.com 1.10,2013-06-30 19:43:00,
2013-06-30 15:58:00,84.8,70.0,29.76,ESE,122,2.0,11.0,62,0.00,,,0.00,weatherlink.com 1.10,2013-06-30 19:58:00,
2013-06-30 16:13:00,87.2,71.0,29.76,South,184,4.0,10.0,58,0.00,,,0.00,weatherlink.com 1.10,2013-06-30 20:13:00,
2013-06-30 16:28:00,85.4,71.0,29.76,SE,135,2.0,11.0,62,0.00,,,0.00,weatherlink.com 1.10,2013-06-30 20:28:00,
2013-06-30 16:43:00,86.6,71.0,29.76,South,186,3.0,11.0,59,0.00,,,0.00,weatherlink.com 1.10,2013-06-30 20:43:00,
2013-06-30 16:58:00,85.7,71.0,29.76,SE,129,5.0,12.0,61,0.00,,,0.00,weatherlink.com 1.10,2013-06-30 20:58:00,
2013-06-30 17:13:00,86.3,71.0,29.76,SE,127,7.0,12.0,60,0.00,,,0.00,weatherlink.com 1.10,2013-06-30 21:13:00,
2013-06-30 17:28:00,84.1,72.0,29.76,SSE,159,5.0,14.0,66,0.00,,,0.00,weatherlink.com 1.10,2013-06-30 21:28:00,
2013-06-30 17:44:00,83.2,72.0,29.76,SSE,150,7.0,12.0,68,0.00,,,0.00,weatherlink.com 1.10,2013-06-30 21:44:00,
2013-06-30 17:58:00,82.6,71.0,29.77,SSW,205,9.0,14.0,69,0.00,,,0.00,weatherlink.com 1.10,2013-06-30 21:58:00,
2013-06-30 18:13:00,82.4,70.0,29.77,SSE,151,5.0,16.0,67,0.00,,,0.00,weatherlink.com 1.10,2013-06-30 22:13:00,
2013-06-30 18:28:00,81.2,68.0,29.78,SSE,168,7.0,18.0,64,0.00,,,0.00,weatherlink.com 1.10,2013-06-30 22:28:00,
2013-06-30 18:43:00,80.6,69.0,29.80,SSE,163,4.0,14.0,67,0.00,,,0.00,weatherlink.com 1.10,2013-06-30 22:43:00,
2013-06-30 18:58:00,80.1,70.0,29.80,SSW,203,5.0,10.0,70,0.00,,,0.00,weatherlink.com 1.10,2013-06-30 22:58:00,
2013-06-30 19:13:00,80.1,70.0,29.81,South,174,1.0,4.0,71,0.00,,,0.00,weatherlink.com 1.10,2013-06-30 23:13:00,
2013-06-30 19:28:00,79.9,70.0,29.81,SE,144,1.0,4.0,72,0.00,,,0.00,weatherlink.com 1.10,2013-06-30 23:28:00,
2013-06-30 19:43:00,79.6,70.0,29.81,SW,231,4.0,8.0,73,0.00,,,0.00,weatherlink.com 1.10,2013-06-30 23:43:00,
2013-06-30 19:58:00,77.1,70.0,29.82,West,270,3.0,5.0,79,0.00,,,0.00,weatherlink.com 1.10,2013-06-30 23:58:00,
2013-06-30 20:13:00,76.1,70.0,29.83,West,280,3.0,5.0,82,0.00,,,0.00,weatherlink.com 1.10,2013-07-01 00:13:00,
2013-06-30 20:28:00,75.3,71.0,29.83,NNE,20,0.0,3.0,85,0.00,,,0.00,weatherlink.com 1.10,2013-07-01 00:28:00,
2013-06-30 20:43:00,74.5,71.0,29.84,NE,37,4.0,5.0,87,0.00,,,0.00,weatherlink.com 1.10,2013-07-01 00:43:00,
2013-06-30 20:58:00,73.5,71.0,29.84,NE,43,2.0,5.0,90,0.00,,,0.00,weatherlink.com 1.10,2013-07-01 00:58:00,
2013-06-30 21:13:00,73.0,70.0,29.84,East,97,0.0,1.0,90,0.00,,,0.00,weatherlink.com 1.10,2013-07-01 01:13:00,
2013-06-30 21:28:00,72.8,70.0,29.85,NNE,14,1.0,3.0,90,0.00,,,0.00,weatherlink.com 1.10,2013-07-01 01:28:00,
2013-06-30 21:43:00,72.6,69.0,29.85,ENE,65,0.0,2.0,89,0.00,,,0.00,weatherlink.com 1.10,2013-07-01 01:43:00,
2013-06-30 21:58:00,72.7,70.0,29.85,ESE,108,1.0,1.0,90,0.00,,,0.00,weatherlink.com 1.10,2013-07-01 01:58:00,
2013-06-30 22:13:00,72.6,70.0,29.85,SSE,158,0.0,1.0,90,0.00,,,0.00,weatherlink.com 1.10,2013-07-01 02:13:00,
2013-06-30 22:28:00,72.0,69.0,29.86,NNW,345,2.0,2.0,90,0.00,,,0.00,weatherlink.com 1.10,2013-07-01 02:28:00,
2013-06-30 22:44:00,71.1,69.0,29.86,NNW,346,1.0,2.0,93,0.00,,,0.00,weatherlink.com 1.10,2013-07-01 02:44:00,
2013-06-30 22:58:00,71.1,69.0,29.86,NNW,335,0.0,1.0,93,0.00,,,0.00,weatherlink.com 1.10,2013-07-01 02:58:00,
2013-06-30 23:14:00,70.8,69.0,29.86,NNE,16,1.0,3.0,93,0.00,,,0.00,weatherlink.com 1.10,2013-07-01 03:14:00,
2013-06-30 23:29:00,70.7,69.0,29.86,ENE,75,0.0,2.0,94,0.00,,,0.00,weatherlink.com 1.10,2013-07-01 03:29:00,
2013-06-30 23:44:00,70.7,69.0,29.86,NNE,32,1.0,2.0,94,0.00,,,0.00,weatherlink.com 1.10,2013-07-01 03:44:00,
2013-06-30 23:59:00,71.4,69.0,29.86,ENE,78,1.0,1.0,93,0.00,,,0.00,weatherlink.com 1.10,2013-07-01 03:59:00,